sensor_id;sensor_type;location;lat;lon;timestamp;temperature;humidity
18361;SHT31;9308;48.550;9.108;2022-07-12T00:01:30;15.42;74.96
18361;SHT31;9308;48.550;9.108;2022-07-12T00:03:56;15.37;75.12
18361;SHT31;9308;48.550;9.108;2022-07-12T00:06:21;15.47;74.80
18361;SHT31;9308;48.550;9.108;2022-07-12T00:08:47;15.41;75.23
18361;SHT31;9308;48.550;9.108;2022-07-12T00:11:13;15.52;74.75
18361;SHT31;9308;48.550;9.108;2022-07-12T00:13:38;15.44;74.96
18361;SHT31;9308;48.550;9.108;2022-07-12T00:16:04;15.50;74.92
18361;SHT31;9308;48.550;9.108;2022-07-12T00:18:30;15.54;74.80
18361;SHT31;9308;48.550;9.108;2022-07-12T00:20:56;15.45;75.01
18361;SHT31;9308;48.550;9.108;2022-07-12T00:23:21;15.55;74.90
18361;SHT31;9308;48.550;9.108;2022-07-12T00:25:47;15.51;74.79
18361;SHT31;9308;48.550;9.108;2022-07-12T00:28:13;15.41;75.32
18361;SHT31;9308;48.550;9.108;2022-07-12T00:30:38;15.40;75.35
18361;SHT31;9308;48.550;9.108;2022-07-12T00:33:04;15.37;75.39
18361;SHT31;9308;48.550;9.108;2022-07-12T00:35:29;15.38;74.87
18361;SHT31;9308;48.550;9.108;2022-07-12T00:37:55;15.34;75.30
18361;SHT31;9308;48.550;9.108;2022-07-12T00:40:21;15.31;75.04
18361;SHT31;9308;48.550;9.108;2022-07-12T00:42:47;15.44;74.36
18361;SHT31;9308;48.550;9.108;2022-07-12T00:45:12;15.18;75.14
18361;SHT31;9308;48.550;9.108;2022-07-12T00:47:41;15.15;75.10
18361;SHT31;9308;48.550;9.108;2022-07-12T00:50:18;15.20;74.83
18361;SHT31;9308;48.550;9.108;2022-07-12T00:52:47;15.13;74.81
18361;SHT31;9308;48.550;9.108;2022-07-12T00:55:13;15.11;75.16
18361;SHT31;9308;48.550;9.108;2022-07-12T00:57:40;15.13;75.23
18361;SHT31;9308;48.550;9.108;2022-07-12T01:00:10;15.07;75.36
18361;SHT31;9308;48.550;9.108;2022-07-12T01:02:37;15.10;75.27
18361;SHT31;9308;48.550;9.108;2022-07-12T01:05:07;15.00;75.79
18361;SHT31;9308;48.550;9.108;2022-07-12T01:07:34;15.08;75.82
18361;SHT31;9308;48.550;9.108;2022-07-12T01:10:00;15.13;75.57
18361;SHT31;9308;48.550;9.108;2022-07-12T01:12:27;15.13;75.48
18361;SHT31;9308;48.550;9.108;2022-07-12T01:14:53;15.08;75.68
18361;SHT31;9308;48.550;9.108;2022-07-12T01:17:23;15.02;75.68
18361;SHT31;9308;48.550;9.108;2022-07-12T01:19:51;15.02;75.68
18361;SHT31;9308;48.550;9.108;2022-07-12T01:22:18;15.03;75.65
18361;SHT31;9308;48.550;9.108;2022-07-12T01:24:45;15.15;75.26
18361;SHT31;9308;48.550;9.108;2022-07-12T01:27:12;15.26;74.75
18361;SHT31;9308;48.550;9.108;2022-07-12T01:29:38;15.04;75.51
18361;SHT31;9308;48.550;9.108;2022-07-12T01:32:05;15.00;75.83
18361;SHT31;9308;48.550;9.108;2022-07-12T01:34:57;15.00;76.27
18361;SHT31;9308;48.550;9.108;2022-07-12T01:37:25;15.08;76.20
18361;SHT31;9308;48.550;9.108;2022-07-12T01:39:53;15.07;76.24
18361;SHT31;9308;48.550;9.108;2022-07-12T01:42:24;15.10;76.31
18361;SHT31;9308;48.550;9.108;2022-07-12T01:44:51;15.04;76.45
18361;SHT31;9308;48.550;9.108;2022-07-12T01:47:18;15.18;75.99
18361;SHT31;9308;48.550;9.108;2022-07-12T01:49:44;15.13;76.27
18361;SHT31;9308;48.550;9.108;2022-07-12T01:52:22;15.13;76.44
18361;SHT31;9308;48.550;9.108;2022-07-12T01:54:48;15.18;76.17
18361;SHT31;9308;48.550;9.108;2022-07-12T01:57:13;15.08;76.55
18361;SHT31;9308;48.550;9.108;2022-07-12T01:59:42;15.02;76.78
18361;SHT31;9308;48.550;9.108;2022-07-12T02:02:07;15.08;76.20
18361;SHT31;9308;48.550;9.108;2022-07-12T02:04:34;15.20;76.07
18361;SHT31;9308;48.550;9.108;2022-07-12T02:07:00;14.96;77.10
18361;SHT31;9308;48.550;9.108;2022-07-12T02:09:29;14.99;77.13
18361;SHT31;9308;48.550;9.108;2022-07-12T02:11:54;14.99;76.92
18361;SHT31;9308;48.550;9.108;2022-07-12T02:14:20;14.92;77.11
18361;SHT31;9308;48.550;9.108;2022-07-12T02:16:47;14.97;76.71
18361;SHT31;9308;48.550;9.108;2022-07-12T02:19:13;15.04;76.10
18361;SHT31;9308;48.550;9.108;2022-07-12T02:21:39;14.82;76.74
18361;SHT31;9308;48.550;9.108;2022-07-12T02:24:07;14.82;76.75
18361;SHT31;9308;48.550;9.108;2022-07-12T02:26:34;14.77;77.02
18361;SHT31;9308;48.550;9.108;2022-07-12T02:29:01;14.71;77.15
18361;SHT31;9308;48.550;9.108;2022-07-12T02:31:27;14.72;77.09
18361;SHT31;9308;48.550;9.108;2022-07-12T02:33:52;14.73;76.77
18361;SHT31;9308;48.550;9.108;2022-07-12T02:36:18;14.64;76.83
18361;SHT31;9308;48.550;9.108;2022-07-12T02:38:43;14.75;76.53
18361;SHT31;9308;48.550;9.108;2022-07-12T02:41:09;14.59;76.63
18361;SHT31;9308;48.550;9.108;2022-07-12T02:43:35;14.59;76.81
18361;SHT31;9308;48.550;9.108;2022-07-12T02:46:08;14.73;76.11
18361;SHT31;9308;48.550;9.108;2022-07-12T02:48:35;14.71;76.57
18361;SHT31;9308;48.550;9.108;2022-07-12T02:51:01;14.73;76.48
18361;SHT31;9308;48.550;9.108;2022-07-12T02:53:27;14.73;76.18
18361;SHT31;9308;48.550;9.108;2022-07-12T02:55:53;14.73;75.66
18361;SHT31;9308;48.550;9.108;2022-07-12T02:58:18;14.52;76.57
18361;SHT31;9308;48.550;9.108;2022-07-12T03:00:44;14.55;76.11
18361;SHT31;9308;48.550;9.108;2022-07-12T03:03:11;14.51;76.29
18361;SHT31;9308;48.550;9.108;2022-07-12T03:05:36;14.61;76.14
18361;SHT31;9308;48.550;9.108;2022-07-12T03:08:03;14.55;76.08
18361;SHT31;9308;48.550;9.108;2022-07-12T03:10:29;14.39;76.63
18361;SHT31;9308;48.550;9.108;2022-07-12T03:12:55;14.31;77.32
18361;SHT31;9308;48.550;9.108;2022-07-12T03:15:21;14.37;76.76
18361;SHT31;9308;48.550;9.108;2022-07-12T03:17:46;14.42;76.64
18361;SHT31;9308;48.550;9.108;2022-07-12T03:20:12;14.28;76.92
18361;SHT31;9308;48.550;9.108;2022-07-12T03:22:44;14.22;77.05
18361;SHT31;9308;48.550;9.108;2022-07-12T03:25:12;14.39;76.50
18361;SHT31;9308;48.550;9.108;2022-07-12T03:27:38;14.41;76.12
18361;SHT31;9308;48.550;9.108;2022-07-12T03:30:05;14.24;77.13
18361;SHT31;9308;48.550;9.108;2022-07-12T03:32:31;14.28;76.53
18361;SHT31;9308;48.550;9.108;2022-07-12T03:34:57;14.25;76.92
18361;SHT31;9308;48.550;9.108;2022-07-12T03:37:22;14.22;77.08
18361;SHT31;9308;48.550;9.108;2022-07-12T03:39:48;14.24;76.56
18361;SHT31;9308;48.550;9.108;2022-07-12T03:42:13;14.20;77.04
18361;SHT31;9308;48.550;9.108;2022-07-12T03:44:39;14.32;77.05
18361;SHT31;9308;48.550;9.108;2022-07-12T03:47:05;14.31;77.20
18361;SHT31;9308;48.550;9.108;2022-07-12T03:49:31;14.71;76.26
18361;SHT31;9308;48.550;9.108;2022-07-12T03:51:57;14.58;76.61
18361;SHT31;9308;48.550;9.108;2022-07-12T03:54:22;14.71;76.06
18361;SHT31;9308;48.550;9.108;2022-07-12T03:56:48;14.58;76.25
18361;SHT31;9308;48.550;9.108;2022-07-12T03:59:32;14.57;76.60
18361;SHT31;9308;48.550;9.108;2022-07-12T04:01:58;14.61;76.78
18361;SHT31;9308;48.550;9.108;2022-07-12T04:04:24;14.61;77.02
18361;SHT31;9308;48.550;9.108;2022-07-12T04:06:49;14.64;76.82
18361;SHT31;9308;48.550;9.108;2022-07-12T04:09:15;14.86;76.05
18361;SHT31;9308;48.550;9.108;2022-07-12T04:11:41;14.75;76.43
18361;SHT31;9308;48.550;9.108;2022-07-12T04:14:06;14.86;76.31
18361;SHT31;9308;48.550;9.108;2022-07-12T04:16:32;14.90;76.06
18361;SHT31;9308;48.550;9.108;2022-07-12T04:18:58;14.92;76.06
18361;SHT31;9308;48.550;9.108;2022-07-12T04:21:24;15.02;76.43
18361;SHT31;9308;48.550;9.108;2022-07-12T04:23:50;14.99;76.26
18361;SHT31;9308;48.550;9.108;2022-07-12T04:26:15;15.13;76.01
18361;SHT31;9308;48.550;9.108;2022-07-12T04:28:41;15.26;75.65
18361;SHT31;9308;48.550;9.108;2022-07-12T04:31:07;15.14;76.05
18361;SHT31;9308;48.550;9.108;2022-07-12T04:33:33;15.30;75.64
18361;SHT31;9308;48.550;9.108;2022-07-12T04:35:59;15.27;75.72
18361;SHT31;9308;48.550;9.108;2022-07-12T04:38:25;15.23;76.01
18361;SHT31;9308;48.550;9.108;2022-07-12T04:40:50;15.38;75.62
18361;SHT31;9308;48.550;9.108;2022-07-12T04:43:16;15.48;75.39
18361;SHT31;9308;48.550;9.108;2022-07-12T04:45:42;15.34;76.03
18361;SHT31;9308;48.550;9.108;2022-07-12T04:48:12;15.45;75.85
18361;SHT31;9308;48.550;9.108;2022-07-12T04:50:38;15.51;75.66
18361;SHT31;9308;48.550;9.108;2022-07-12T04:53:04;15.54;75.87
18361;SHT31;9308;48.550;9.108;2022-07-12T04:55:30;15.65;75.95
18361;SHT31;9308;48.550;9.108;2022-07-12T04:57:55;15.59;76.12
18361;SHT31;9308;48.550;9.108;2022-07-12T05:00:21;15.78;75.51
18361;SHT31;9308;48.550;9.108;2022-07-12T05:02:47;16.00;75.12
18361;SHT31;9308;48.550;9.108;2022-07-12T05:05:13;15.99;75.23
18361;SHT31;9308;48.550;9.108;2022-07-12T05:07:40;15.91;75.48
18361;SHT31;9308;48.550;9.108;2022-07-12T05:10:07;15.96;75.30
18361;SHT31;9308;48.550;9.108;2022-07-12T05:12:34;16.05;75.60
18361;SHT31;9308;48.550;9.108;2022-07-12T05:15:00;16.17;75.55
18361;SHT31;9308;48.550;9.108;2022-07-12T05:17:25;16.28;75.21
18361;SHT31;9308;48.550;9.108;2022-07-12T05:19:51;16.26;75.15
18361;SHT31;9308;48.550;9.108;2022-07-12T05:22:17;16.33;74.68
18361;SHT31;9308;48.550;9.108;2022-07-12T05:24:42;16.34;75.36
18361;SHT31;9308;48.550;9.108;2022-07-12T05:27:08;16.42;74.70
18361;SHT31;9308;48.550;9.108;2022-07-12T05:29:34;16.52;75.05
18361;SHT31;9308;48.550;9.108;2022-07-12T05:32:00;16.71;74.33
18361;SHT31;9308;48.550;9.108;2022-07-12T05:34:27;16.85;73.82
18361;SHT31;9308;48.550;9.108;2022-07-12T05:36:53;16.92;73.93
18361;SHT31;9308;48.550;9.108;2022-07-12T05:39:19;16.92;74.03
18361;SHT31;9308;48.550;9.108;2022-07-12T05:41:45;16.85;74.47
18361;SHT31;9308;48.550;9.108;2022-07-12T05:44:12;17.04;73.89
18361;SHT31;9308;48.550;9.108;2022-07-12T05:46:38;17.10;73.92
18361;SHT31;9308;48.550;9.108;2022-07-12T05:49:05;17.02;74.16
18361;SHT31;9308;48.550;9.108;2022-07-12T05:51:30;17.07;73.96
18361;SHT31;9308;48.550;9.108;2022-07-12T05:54:14;17.27;73.68
18361;SHT31;9308;48.550;9.108;2022-07-12T05:56:40;17.32;73.16
18361;SHT31;9308;48.550;9.108;2022-07-12T05:59:06;17.38;73.64
18361;SHT31;9308;48.550;9.108;2022-07-12T06:01:31;17.44;73.85
18361;SHT31;9308;48.550;9.108;2022-07-12T06:03:57;17.49;73.80
18361;SHT31;9308;48.550;9.108;2022-07-12T06:06:22;17.45;73.91
18361;SHT31;9308;48.550;9.108;2022-07-12T06:08:48;17.79;72.75
18361;SHT31;9308;48.550;9.108;2022-07-12T06:11:13;17.64;73.47
18361;SHT31;9308;48.550;9.108;2022-07-12T06:13:39;17.71;73.12
18361;SHT31;9308;48.550;9.108;2022-07-12T06:16:05;17.83;73.14
18361;SHT31;9308;48.550;9.108;2022-07-12T06:18:34;17.86;72.54
18361;SHT31;9308;48.550;9.108;2022-07-12T06:20:59;18.09;72.09
18361;SHT31;9308;48.550;9.108;2022-07-12T06:23:25;18.06;72.78
18361;SHT31;9308;48.550;9.108;2022-07-12T06:25:51;18.12;72.07
18361;SHT31;9308;48.550;9.108;2022-07-12T06:28:16;18.35;71.60
18361;SHT31;9308;48.550;9.108;2022-07-12T06:30:42;18.38;71.20
18361;SHT31;9308;48.550;9.108;2022-07-12T06:33:08;18.33;71.30
18361;SHT31;9308;48.550;9.108;2022-07-12T06:35:33;18.68;70.23
18361;SHT31;9308;48.550;9.108;2022-07-12T06:37:59;18.62;70.89
18361;SHT31;9308;48.550;9.108;2022-07-12T06:40:25;18.85;70.05
18361;SHT31;9308;48.550;9.108;2022-07-12T06:42:51;18.92;70.62
18361;SHT31;9308;48.550;9.108;2022-07-12T06:45:17;18.98;69.60
18361;SHT31;9308;48.550;9.108;2022-07-12T06:47:43;19.14;70.40
18361;SHT31;9308;48.550;9.108;2022-07-12T06:50:09;19.41;69.01
18361;SHT31;9308;48.550;9.108;2022-07-12T06:52:35;19.45;68.24
18361;SHT31;9308;48.550;9.108;2022-07-12T06:55:01;19.50;68.56
18361;SHT31;9308;48.550;9.108;2022-07-12T06:57:26;19.30;68.29
18361;SHT31;9308;48.550;9.108;2022-07-12T06:59:52;19.47;68.94
18361;SHT31;9308;48.550;9.108;2022-07-12T07:02:18;19.72;66.55
18361;SHT31;9308;48.550;9.108;2022-07-12T07:04:44;19.72;67.34
18361;SHT31;9308;48.550;9.108;2022-07-12T07:07:10;19.90;67.60
18361;SHT31;9308;48.550;9.108;2022-07-12T07:09:35;20.02;67.05
18361;SHT31;9308;48.550;9.108;2022-07-12T07:12:01;20.16;66.75
18361;SHT31;9308;48.550;9.108;2022-07-12T07:14:27;20.24;67.24
18361;SHT31;9308;48.550;9.108;2022-07-12T07:16:53;20.58;67.13
18361;SHT31;9308;48.550;9.108;2022-07-12T07:19:19;20.41;66.52
18361;SHT31;9308;48.550;9.108;2022-07-12T07:21:44;20.57;64.56
18361;SHT31;9308;48.550;9.108;2022-07-12T07:24:10;20.45;65.12
18361;SHT31;9308;48.550;9.108;2022-07-12T07:26:36;20.48;63.90
18361;SHT31;9308;48.550;9.108;2022-07-12T07:29:02;20.59;64.79
18361;SHT31;9308;48.550;9.108;2022-07-12T07:31:51;20.64;63.29
18361;SHT31;9308;48.550;9.108;2022-07-12T07:34:16;20.89;62.29
18361;SHT31;9308;48.550;9.108;2022-07-12T07:36:42;21.15;63.04
18361;SHT31;9308;48.550;9.108;2022-07-12T07:39:08;20.99;62.85
18361;SHT31;9308;48.550;9.108;2022-07-12T07:41:34;21.19;62.61
18361;SHT31;9308;48.550;9.108;2022-07-12T07:43:59;21.37;61.17
18361;SHT31;9308;48.550;9.108;2022-07-12T07:46:25;21.27;61.20
18361;SHT31;9308;48.550;9.108;2022-07-12T07:48:50;21.53;61.25
18361;SHT31;9308;48.550;9.108;2022-07-12T07:51:16;21.60;61.00
18361;SHT31;9308;48.550;9.108;2022-07-12T07:53:42;21.36;61.77
18361;SHT31;9308;48.550;9.108;2022-07-12T07:56:07;21.50;61.73
18361;SHT31;9308;48.550;9.108;2022-07-12T07:58:33;21.71;61.75
18361;SHT31;9308;48.550;9.108;2022-07-12T08:00:59;21.88;61.40
18361;SHT31;9308;48.550;9.108;2022-07-12T08:03:24;22.15;59.31
18361;SHT31;9308;48.550;9.108;2022-07-12T08:05:50;21.94;59.23
18361;SHT31;9308;48.550;9.108;2022-07-12T08:08:17;22.10;59.37
18361;SHT31;9308;48.550;9.108;2022-07-12T08:10:43;22.10;59.23
18361;SHT31;9308;48.550;9.108;2022-07-12T08:13:09;22.41;58.95
18361;SHT31;9308;48.550;9.108;2022-07-12T08:15:34;22.54;58.61
18361;SHT31;9308;48.550;9.108;2022-07-12T08:18:00;22.95;56.60
18361;SHT31;9308;48.550;9.108;2022-07-12T08:20:26;22.27;55.99
18361;SHT31;9308;48.550;9.108;2022-07-12T08:22:51;23.05;56.57
18361;SHT31;9308;48.550;9.108;2022-07-12T08:25:17;23.39;55.04
18361;SHT31;9308;48.550;9.108;2022-07-12T08:27:43;23.37;54.61
18361;SHT31;9308;48.550;9.108;2022-07-12T08:30:09;23.50;53.51
18361;SHT31;9308;48.550;9.108;2022-07-12T08:32:36;23.51;57.21
18361;SHT31;9308;48.550;9.108;2022-07-12T08:35:02;23.08;55.86
18361;SHT31;9308;48.550;9.108;2022-07-12T08:37:28;23.81;55.36
18361;SHT31;9308;48.550;9.108;2022-07-12T08:39:53;24.09;52.43
18361;SHT31;9308;48.550;9.108;2022-07-12T08:42:19;24.25;53.13
18361;SHT31;9308;48.550;9.108;2022-07-12T08:44:53;24.98;52.16
18361;SHT31;9308;48.550;9.108;2022-07-12T08:47:19;24.69;53.57
18361;SHT31;9308;48.550;9.108;2022-07-12T08:52:40;24.29;53.17
18361;SHT31;9308;48.550;9.108;2022-07-12T08:55:16;24.98;51.26
18361;SHT31;9308;48.550;9.108;2022-07-12T08:57:43;24.67;51.74
18361;SHT31;9308;48.550;9.108;2022-07-12T09:00:10;24.31;53.15
18361;SHT31;9308;48.550;9.108;2022-07-12T09:02:52;24.00;53.80
18361;SHT31;9308;48.550;9.108;2022-07-12T09:05:26;24.02;53.38
18361;SHT31;9308;48.550;9.108;2022-07-12T09:08:02;24.08;54.06
18361;SHT31;9308;48.550;9.108;2022-07-12T09:10:29;23.97;54.82
18361;SHT31;9308;48.550;9.108;2022-07-12T09:12:54;24.01;53.30
18361;SHT31;9308;48.550;9.108;2022-07-12T09:15:22;23.78;52.97
18361;SHT31;9308;48.550;9.108;2022-07-12T09:18:04;23.54;53.55
18361;SHT31;9308;48.550;9.108;2022-07-12T09:20:33;23.29;53.60
18361;SHT31;9308;48.550;9.108;2022-07-12T09:23:01;23.15;53.24
18361;SHT31;9308;48.550;9.108;2022-07-12T09:25:28;23.18;52.67
18361;SHT31;9308;48.550;9.108;2022-07-12T09:27:58;22.80;54.14
18361;SHT31;9308;48.550;9.108;2022-07-12T09:30:27;23.73;54.09
18361;SHT31;9308;48.550;9.108;2022-07-12T09:33:00;24.42;52.52
18361;SHT31;9308;48.550;9.108;2022-07-12T09:38:33;24.39;50.83
18361;SHT31;9308;48.550;9.108;2022-07-12T09:40:59;23.98;53.40
18361;SHT31;9308;48.550;9.108;2022-07-12T09:43:26;23.71;51.73
18361;SHT31;9308;48.550;9.108;2022-07-12T09:45:51;24.87;50.01
18361;SHT31;9308;48.550;9.108;2022-07-12T09:48:19;25.53;49.04
18361;SHT31;9308;48.550;9.108;2022-07-12T09:50:48;25.53;47.20
18361;SHT31;9308;48.550;9.108;2022-07-12T09:53:38;25.83;48.12
18361;SHT31;9308;48.550;9.108;2022-07-12T09:56:05;24.84;47.98
18361;SHT31;9308;48.550;9.108;2022-07-12T09:58:51;25.63;49.31
18361;SHT31;9308;48.550;9.108;2022-07-12T10:01:17;25.19;49.27
18361;SHT31;9308;48.550;9.108;2022-07-12T10:03:44;26.05;48.03
18361;SHT31;9308;48.550;9.108;2022-07-12T10:06:13;26.41;46.98
18361;SHT31;9308;48.550;9.108;2022-07-12T10:08:40;25.70;48.24
18361;SHT31;9308;48.550;9.108;2022-07-12T10:11:06;25.98;47.06
18361;SHT31;9308;48.550;9.108;2022-07-12T10:13:33;26.79;46.68
18361;SHT31;9308;48.550;9.108;2022-07-12T10:16:00;27.06;44.85
18361;SHT31;9308;48.550;9.108;2022-07-12T10:18:27;26.91;47.74
18361;SHT31;9308;48.550;9.108;2022-07-12T10:20:53;27.35;45.51
18361;SHT31;9308;48.550;9.108;2022-07-12T10:23:34;27.45;46.92
18361;SHT31;9308;48.550;9.108;2022-07-12T10:29:05;25.19;49.53
18361;SHT31;9308;48.550;9.108;2022-07-12T10:31:49;24.94;50.15
18361;SHT31;9308;48.550;9.108;2022-07-12T10:34:23;24.91;48.76
18361;SHT31;9308;48.550;9.108;2022-07-12T10:37:10;26.35;47.54
18361;SHT31;9308;48.550;9.108;2022-07-12T10:39:35;26.35;46.32
18361;SHT31;9308;48.550;9.108;2022-07-12T10:44:48;27.42;45.48
18361;SHT31;9308;48.550;9.108;2022-07-12T10:47:15;27.70;44.04
18361;SHT31;9308;48.550;9.108;2022-07-12T10:49:49;27.65;44.79
18361;SHT31;9308;48.550;9.108;2022-07-12T10:52:16;26.38;46.26
18361;SHT31;9308;48.550;9.108;2022-07-12T10:57:48;25.91;46.17
18361;SHT31;9308;48.550;9.108;2022-07-12T11:00:18;26.04;47.10
18361;SHT31;9308;48.550;9.108;2022-07-12T11:02:45;26.80;47.16
18361;SHT31;9308;48.550;9.108;2022-07-12T11:05:11;26.78;46.67
18361;SHT31;9308;48.550;9.108;2022-07-12T11:07:37;27.25;45.00
18361;SHT31;9308;48.550;9.108;2022-07-12T11:10:03;27.38;42.91
18361;SHT31;9308;48.550;9.108;2022-07-12T11:12:30;27.86;44.70
18361;SHT31;9308;48.550;9.108;2022-07-12T11:14:56;27.58;43.29
18361;SHT31;9308;48.550;9.108;2022-07-12T11:17:31;27.42;44.18
18361;SHT31;9308;48.550;9.108;2022-07-12T11:20:04;27.52;41.90
18361;SHT31;9308;48.550;9.108;2022-07-12T11:22:31;27.77;43.81
18361;SHT31;9308;48.550;9.108;2022-07-12T11:24:57;28.28;44.03
18361;SHT31;9308;48.550;9.108;2022-07-12T11:27:26;27.93;44.80
18361;SHT31;9308;48.550;9.108;2022-07-12T11:30:02;28.14;42.67
18361;SHT31;9308;48.550;9.108;2022-07-12T11:32:36;28.18;43.23
18361;SHT31;9308;48.550;9.108;2022-07-12T11:35:02;27.66;44.10
18361;SHT31;9308;48.550;9.108;2022-07-12T11:37:28;27.92;45.56
18361;SHT31;9308;48.550;9.108;2022-07-12T11:39:54;28.30;41.36
18361;SHT31;9308;48.550;9.108;2022-07-12T11:42:20;27.61;42.04
18361;SHT31;9308;48.550;9.108;2022-07-12T11:44:47;27.14;41.70
18361;SHT31;9308;48.550;9.108;2022-07-12T11:47:14;27.42;42.45
18361;SHT31;9308;48.550;9.108;2022-07-12T11:49:45;28.24;41.84
18361;SHT31;9308;48.550;9.108;2022-07-12T11:52:13;28.38;42.34
18361;SHT31;9308;48.550;9.108;2022-07-12T11:54:39;28.59;43.35
18361;SHT31;9308;48.550;9.108;2022-07-12T11:57:08;28.10;42.16
18361;SHT31;9308;48.550;9.108;2022-07-12T11:59:34;28.49;41.24
18361;SHT31;9308;48.550;9.108;2022-07-12T12:02:08;28.90;42.63
18361;SHT31;9308;48.550;9.108;2022-07-12T12:04:52;28.48;39.47
18361;SHT31;9308;48.550;9.108;2022-07-12T12:07:19;28.18;41.14
18361;SHT31;9308;48.550;9.108;2022-07-12T12:10:08;28.86;41.48
18361;SHT31;9308;48.550;9.108;2022-07-12T12:12:49;28.09;41.57
18361;SHT31;9308;48.550;9.108;2022-07-12T12:15:29;28.52;41.48
18361;SHT31;9308;48.550;9.108;2022-07-12T12:23:04;28.69;40.51
18361;SHT31;9308;48.550;9.108;2022-07-12T12:25:31;28.28;39.64
18361;SHT31;9308;48.550;9.108;2022-07-12T12:28:02;28.79;39.14
18361;SHT31;9308;48.550;9.108;2022-07-12T12:30:31;28.51;39.34
18361;SHT31;9308;48.550;9.108;2022-07-12T12:32:59;28.53;40.33
18361;SHT31;9308;48.550;9.108;2022-07-12T12:35:38;28.10;39.18
18361;SHT31;9308;48.550;9.108;2022-07-12T12:38:12;28.58;38.21
18361;SHT31;9308;48.550;9.108;2022-07-12T12:40:38;28.52;39.01
18361;SHT31;9308;48.550;9.108;2022-07-12T12:43:09;28.53;39.36
18361;SHT31;9308;48.550;9.108;2022-07-12T12:45:35;28.18;41.17
18361;SHT31;9308;48.550;9.108;2022-07-12T12:48:04;28.35;39.88
18361;SHT31;9308;48.550;9.108;2022-07-12T12:50:48;28.78;40.01
18361;SHT31;9308;48.550;9.108;2022-07-12T12:53:19;29.30;39.05
18361;SHT31;9308;48.550;9.108;2022-07-12T12:55:46;29.06;37.86
18361;SHT31;9308;48.550;9.108;2022-07-12T12:58:12;28.97;39.36
18361;SHT31;9308;48.550;9.108;2022-07-12T13:00:42;28.82;38.84
18361;SHT31;9308;48.550;9.108;2022-07-12T13:03:10;28.65;39.21
18361;SHT31;9308;48.550;9.108;2022-07-12T13:05:36;29.07;38.12
18361;SHT31;9308;48.550;9.108;2022-07-12T13:08:03;28.99;38.61
18361;SHT31;9308;48.550;9.108;2022-07-12T13:10:30;29.27;38.11
18361;SHT31;9308;48.550;9.108;2022-07-12T13:12:56;28.42;38.12
18361;SHT31;9308;48.550;9.108;2022-07-12T13:15:23;28.48;37.85
18361;SHT31;9308;48.550;9.108;2022-07-12T13:17:48;28.90;38.38
18361;SHT31;9308;48.550;9.108;2022-07-12T13:20:14;29.24;39.71
18361;SHT31;9308;48.550;9.108;2022-07-12T13:22:41;29.13;39.36
18361;SHT31;9308;48.550;9.108;2022-07-12T13:25:10;29.76;38.01
18361;SHT31;9308;48.550;9.108;2022-07-12T13:27:37;29.78;39.00
18361;SHT31;9308;48.550;9.108;2022-07-12T13:30:03;29.23;38.23
18361;SHT31;9308;48.550;9.108;2022-07-12T13:32:28;29.13;39.98
18361;SHT31;9308;48.550;9.108;2022-07-12T13:34:54;29.26;38.76
18361;SHT31;9308;48.550;9.108;2022-07-12T13:37:19;29.34;37.30
18361;SHT31;9308;48.550;9.108;2022-07-12T13:39:45;29.62;38.11
18361;SHT31;9308;48.550;9.108;2022-07-12T13:42:29;29.79;38.80
18361;SHT31;9308;48.550;9.108;2022-07-12T13:44:55;29.40;38.51
18361;SHT31;9308;48.550;9.108;2022-07-12T13:47:21;29.66;37.82
18361;SHT31;9308;48.550;9.108;2022-07-12T13:49:50;29.69;39.16
18361;SHT31;9308;48.550;9.108;2022-07-12T13:52:16;29.76;38.88
18361;SHT31;9308;48.550;9.108;2022-07-12T13:54:43;29.58;38.93
18361;SHT31;9308;48.550;9.108;2022-07-12T13:57:09;29.79;40.04
18361;SHT31;9308;48.550;9.108;2022-07-12T13:59:36;29.96;38.23
18361;SHT31;9308;48.550;9.108;2022-07-12T14:02:03;29.34;36.65
18361;SHT31;9308;48.550;9.108;2022-07-12T14:04:29;29.65;37.23
18361;SHT31;9308;48.550;9.108;2022-07-12T14:06:56;29.61;37.71
18361;SHT31;9308;48.550;9.108;2022-07-12T14:09:21;29.62;36.84
18361;SHT31;9308;48.550;9.108;2022-07-12T14:11:47;29.04;37.99
18361;SHT31;9308;48.550;9.108;2022-07-12T14:14:13;29.61;37.75
18361;SHT31;9308;48.550;9.108;2022-07-12T14:16:39;29.85;37.02
18361;SHT31;9308;48.550;9.108;2022-07-12T14:19:05;29.57;36.94
18361;SHT31;9308;48.550;9.108;2022-07-12T14:21:31;29.55;37.95
18361;SHT31;9308;48.550;9.108;2022-07-12T14:23:57;29.57;37.19
18361;SHT31;9308;48.550;9.108;2022-07-12T14:26:29;29.65;37.35
18361;SHT31;9308;48.550;9.108;2022-07-12T14:28:54;30.14;36.16
18361;SHT31;9308;48.550;9.108;2022-07-12T14:31:20;29.48;37.98
18361;SHT31;9308;48.550;9.108;2022-07-12T14:33:45;29.37;37.76
18361;SHT31;9308;48.550;9.108;2022-07-12T14:36:11;29.50;37.15
18361;SHT31;9308;48.550;9.108;2022-07-12T14:38:37;30.02;36.09
18361;SHT31;9308;48.550;9.108;2022-07-12T14:41:02;29.99;36.41
18361;SHT31;9308;48.550;9.108;2022-07-12T14:43:28;30.28;37.19
18361;SHT31;9308;48.550;9.108;2022-07-12T14:45:54;29.59;37.48
18361;SHT31;9308;48.550;9.108;2022-07-12T14:48:21;29.85;37.48
18361;SHT31;9308;48.550;9.108;2022-07-12T14:50:46;29.55;37.62
18361;SHT31;9308;48.550;9.108;2022-07-12T14:53:13;29.33;37.56
18361;SHT31;9308;48.550;9.108;2022-07-12T14:55:38;29.61;36.81
18361;SHT31;9308;48.550;9.108;2022-07-12T14:58:05;29.90;35.94
18361;SHT31;9308;48.550;9.108;2022-07-12T15:00:35;29.65;36.22
18361;SHT31;9308;48.550;9.108;2022-07-12T15:03:01;29.79;36.51
18361;SHT31;9308;48.550;9.108;2022-07-12T15:05:27;29.35;35.60
18361;SHT31;9308;48.550;9.108;2022-07-12T15:07:52;29.86;35.88
18361;SHT31;9308;48.550;9.108;2022-07-12T15:10:18;29.76;36.41
18361;SHT31;9308;48.550;9.108;2022-07-12T15:12:43;29.79;34.53
18361;SHT31;9308;48.550;9.108;2022-07-12T15:15:09;29.76;36.34
18361;SHT31;9308;48.550;9.108;2022-07-12T15:17:35;29.58;36.54
18361;SHT31;9308;48.550;9.108;2022-07-12T15:20:02;29.47;36.71
18361;SHT31;9308;48.550;9.108;2022-07-12T15:22:27;29.62;36.46
18361;SHT31;9308;48.550;9.108;2022-07-12T15:24:53;29.65;35.91
18361;SHT31;9308;48.550;9.108;2022-07-12T15:27:18;29.22;35.85
18361;SHT31;9308;48.550;9.108;2022-07-12T15:29:44;29.62;35.16
18361;SHT31;9308;48.550;9.108;2022-07-12T15:32:12;29.29;36.39
18361;SHT31;9308;48.550;9.108;2022-07-12T15:34:37;29.63;35.64
18361;SHT31;9308;48.550;9.108;2022-07-12T15:37:03;29.81;35.57
18361;SHT31;9308;48.550;9.108;2022-07-12T15:39:29;29.86;34.72
18361;SHT31;9308;48.550;9.108;2022-07-12T15:41:55;29.88;33.91
18361;SHT31;9308;48.550;9.108;2022-07-12T15:44:20;29.92;34.86
18361;SHT31;9308;48.550;9.108;2022-07-12T15:46:47;29.34;35.54
18361;SHT31;9308;48.550;9.108;2022-07-12T15:49:13;29.68;34.97
18361;SHT31;9308;48.550;9.108;2022-07-12T15:51:39;30.20;36.19
18361;SHT31;9308;48.550;9.108;2022-07-12T15:54:23;29.92;36.43
18361;SHT31;9308;48.550;9.108;2022-07-12T15:56:49;30.23;34.41
18361;SHT31;9308;48.550;9.108;2022-07-12T15:59:15;30.31;34.69
18361;SHT31;9308;48.550;9.108;2022-07-12T16:01:42;30.05;34.30
18361;SHT31;9308;48.550;9.108;2022-07-12T16:04:08;30.47;33.89
18361;SHT31;9308;48.550;9.108;2022-07-12T16:06:35;30.40;33.85